createdAt,value
2019-06-01T00:00:44.180Z,15.70
2019-06-01T00:02:55.856Z,15.70
2019-06-01T00:04:56.391Z,15.70
2019-06-01T00:07:02.224Z,15.60
2019-06-01T00:09:08.370Z,15.60
2019-06-01T00:11:13.387Z,15.50
2019-06-01T00:13:19.218Z,15.50
2019-06-01T00:15:24.388Z,15.40
2019-06-01T00:17:29.733Z,15.40
2019-06-01T00:19:35.255Z,15.40
2019-06-01T00:21:41.176Z,15.40
2019-06-01T00:23:46.755Z,15.40
2019-06-01T00:25:54.830Z,15.40
2019-06-01T00:27:59.873Z,15.40
2019-06-01T00:30:05.457Z,15.40
2019-06-01T00:32:10.630Z,15.30
2019-06-01T00:34:15.960Z,15.30
2019-06-01T00:36:21.205Z,15.30
2019-06-01T00:38:26.367Z,15.20
2019-06-01T00:40:32.022Z,15.30
2019-06-01T00:42:37.547Z,15.30
2019-06-01T00:44:42.768Z,15.30
2019-06-01T00:46:48.754Z,15.20
2019-06-01T00:48:54.276Z,15.20
2019-06-01T00:50:59.353Z,15.20
2019-06-01T00:53:05.382Z,15.20
2019-06-01T00:55:10.606Z,15.20
2019-06-01T00:57:15.711Z,15.10
2019-06-01T00:59:21.375Z,15.10
2019-06-01T01:01:26.954Z,15.00
2019-06-01T01:03:32.486Z,15.00
2019-06-01T01:05:37.719Z,14.90
2019-06-01T01:07:42.873Z,14.90
2019-06-01T01:09:48.790Z,14.80
2019-06-01T01:11:55.297Z,14.90
2019-06-01T01:14:00.529Z,14.90
2019-06-01T01:16:05.991Z,14.90
2019-06-01T01:18:11.336Z,14.90
2019-06-01T01:20:16.461Z,14.90
2019-06-01T01:22:21.576Z,14.90
2019-06-01T01:24:26.602Z,14.90
2019-06-01T01:26:31.793Z,14.80
2019-06-01T01:28:37.136Z,14.80
2019-06-01T01:30:42.412Z,14.80
2019-06-01T01:32:47.654Z,14.70
2019-06-01T01:34:53.705Z,14.70
2019-06-01T01:36:58.944Z,14.70
2019-06-01T01:39:05.341Z,14.80
2019-06-01T01:41:10.326Z,14.70
2019-06-01T01:43:15.414Z,14.80
2019-06-01T01:45:20.491Z,14.70
2019-06-01T01:47:25.637Z,14.80
2019-06-01T01:49:31.571Z,14.80
2019-06-01T01:51:36.855Z,14.80
2019-06-01T01:53:41.947Z,14.70
2019-06-01T01:55:47.487Z,14.60
2019-06-01T01:57:53.288Z,14.60
2019-06-01T01:59:59.458Z,14.60
2019-06-01T02:02:04.761Z,14.60
2019-06-01T02:04:09.853Z,14.50
2019-06-01T02:06:15.111Z,14.50
2019-06-01T02:08:21.847Z,14.50
2019-06-01T02:10:27.166Z,14.50
2019-06-01T02:12:32.440Z,14.50
2019-06-01T02:14:37.608Z,14.50
2019-06-01T02:16:42.867Z,14.40
2019-06-01T02:18:47.860Z,14.40
2019-06-01T02:20:54.256Z,14.40
2019-06-01T02:23:00.899Z,14.40
2019-06-01T02:25:06.949Z,14.40
2019-06-01T02:27:12.105Z,14.40
2019-06-01T02:29:17.605Z,14.40
2019-06-01T02:31:39.776Z,14.50
2019-06-01T02:33:30.205Z,14.50
2019-06-01T02:35:35.349Z,14.50
2019-06-01T02:37:40.617Z,14.50
2019-06-01T02:39:45.958Z,14.60
2019-06-01T02:41:51.134Z,14.60
2019-06-01T02:43:57.297Z,14.50
2019-06-01T02:46:04.991Z,14.50
2019-06-01T02:48:09.643Z,14.50
2019-06-01T02:50:15.167Z,14.40
2019-06-01T02:52:20.393Z,14.50
2019-06-01T02:54:25.529Z,14.50
2019-06-01T02:56:30.819Z,14.50
2019-06-01T02:58:35.844Z,14.50
2019-06-01T03:01:12.566Z,14.50
2019-06-01T03:03:18.547Z,14.50
2019-06-01T03:05:24.650Z,14.50
2019-06-01T03:07:31.961Z,14.50
2019-06-01T03:09:40.181Z,14.50
2019-06-01T03:11:47.131Z,14.50
2019-06-01T03:13:56.207Z,14.50
2019-06-01T03:16:03.454Z,14.50
2019-06-01T03:18:13.507Z,14.50
2019-06-01T03:20:18.784Z,14.50
2019-06-01T03:22:25.652Z,14.50
2019-06-01T03:24:35.302Z,14.50
2019-06-01T03:26:47.470Z,14.40
2019-06-01T03:28:53.869Z,14.40
2019-06-01T03:31:00.946Z,14.50
2019-06-01T03:33:07.997Z,14.60
2019-06-01T03:35:13.157Z,14.60
2019-06-01T03:37:18.620Z,14.70
2019-06-01T03:39:23.841Z,14.70
2019-06-01T03:41:29.279Z,14.80
2019-06-01T03:43:34.729Z,14.80
2019-06-01T03:45:40.238Z,14.90
2019-06-01T03:47:45.628Z,14.90
2019-06-01T03:49:50.920Z,15.00
2019-06-01T03:51:56.174Z,15.00
2019-06-01T03:54:04.616Z,15.10
2019-06-01T03:56:09.075Z,15.10
2019-06-01T03:58:14.144Z,15.20
2019-06-01T04:00:19.432Z,15.20
2019-06-01T04:02:32.680Z,15.20
2019-06-01T04:04:31.877Z,15.20
2019-06-01T04:06:36.981Z,15.30
2019-06-01T04:08:42.258Z,15.30
2019-06-01T04:10:47.454Z,15.30
2019-06-01T04:12:52.572Z,15.40
2019-06-01T04:14:57.738Z,15.50
2019-06-01T04:17:04.156Z,15.50
2019-06-01T04:19:10.044Z,15.50
2019-06-01T04:21:15.168Z,15.60
2019-06-01T04:23:20.255Z,15.60
2019-06-01T04:25:25.508Z,15.70
2019-06-01T04:27:30.993Z,15.70
2019-06-01T04:29:36.193Z,15.80
2019-06-01T04:31:41.528Z,15.80
2019-06-01T04:33:46.567Z,15.80
2019-06-01T04:35:51.653Z,15.90
2019-06-01T04:37:56.812Z,15.90
2019-06-01T04:40:03.245Z,15.90
2019-06-01T04:42:08.203Z,16.00
2019-06-01T04:44:14.356Z,16.00
2019-06-01T04:46:19.452Z,16.10
2019-06-01T04:48:24.713Z,16.10
2019-06-01T04:50:31.244Z,16.20
2019-06-01T04:52:36.694Z,16.30
2019-06-01T04:54:42.833Z,16.40
2019-06-01T04:56:48.032Z,16.50
2019-06-01T04:58:53.199Z,16.60
2019-06-01T05:00:58.516Z,16.80
2019-06-01T05:03:06.755Z,17.00
2019-06-01T05:05:11.278Z,17.30
2019-06-01T05:07:16.350Z,17.50
2019-06-01T05:09:21.535Z,17.60
2019-06-01T05:11:26.859Z,17.80
2019-06-01T05:13:32.118Z,18.00
2019-06-01T05:15:37.246Z,18.10
2019-06-01T05:17:42.485Z,18.30
2019-06-01T05:19:47.330Z,18.50
2019-06-01T05:21:52.389Z,18.60
2019-06-01T05:23:57.338Z,18.70
2019-06-01T05:26:02.609Z,18.80
2019-06-01T05:28:11.224Z,19.00
2019-06-01T05:30:17.634Z,19.30
2019-06-01T05:32:22.996Z,19.50
2019-06-01T05:34:27.938Z,19.70
2019-06-01T05:36:32.976Z,19.90
2019-06-01T05:38:37.925Z,20.20
2019-06-01T05:40:43.140Z,20.30
2019-06-01T05:42:48.320Z,20.50
2019-06-01T05:44:53.229Z,20.70
2019-06-01T05:46:58.119Z,20.80
2019-06-01T05:49:02.931Z,21.00
2019-06-01T05:51:08.152Z,21.20
2019-06-01T05:53:12.953Z,21.40
2019-06-01T05:55:18.791Z,21.70
2019-06-01T05:57:23.745Z,21.90
2019-06-01T05:59:28.852Z,22.10
2019-06-01T06:01:34.130Z,22.30
2019-06-01T06:03:40.591Z,22.50
2019-06-01T06:05:45.917Z,22.70
2019-06-01T06:07:50.934Z,22.90
2019-06-01T06:09:56.022Z,23.00
2019-06-01T06:12:01.532Z,23.20
2019-06-01T06:14:06.449Z,23.40
2019-06-01T06:16:11.664Z,23.70
2019-06-01T06:18:17.832Z,23.90
2019-06-01T06:20:22.811Z,24.20
2019-06-01T06:22:27.696Z,24.40
2019-06-01T06:24:32.882Z,24.50
2019-06-01T06:26:38.019Z,24.70
2019-06-01T06:28:43.200Z,24.80
2019-06-01T06:30:48.055Z,24.80
2019-06-01T06:32:52.982Z,24.80
2019-06-01T06:34:57.893Z,24.80
2019-06-01T06:37:02.763Z,25.10
2019-06-01T06:39:08.881Z,25.40
2019-06-01T06:41:13.987Z,25.60
2019-06-01T06:43:30.991Z,25.70
2019-06-01T06:45:29.642Z,25.70
2019-06-01T06:47:34.515Z,25.90
2019-06-01T06:49:40.641Z,25.90
2019-06-01T06:51:45.857Z,26.10
2019-06-01T06:53:50.591Z,26.20
2019-06-01T06:55:55.772Z,26.00
2019-06-01T06:58:00.901Z,26.00
2019-06-01T07:00:10.708Z,26.00
2019-06-01T07:02:19.031Z,25.90
2019-06-01T07:04:25.283Z,26.20
2019-06-01T07:06:30.165Z,26.50
2019-06-01T07:08:35.118Z,26.60
2019-06-01T07:10:41.560Z,26.60
2019-06-01T07:12:46.829Z,26.30
2019-06-01T07:14:51.666Z,26.20
2019-06-01T07:16:56.836Z,26.40
2019-06-01T07:19:02.367Z,26.60
2019-06-01T07:21:08.120Z,26.70
2019-06-01T07:23:13.056Z,26.80
2019-06-01T07:25:18.301Z,27.10
2019-06-01T07:27:24.111Z,27.40
2019-06-01T07:29:29.088Z,27.50
2019-06-01T07:31:34.131Z,27.60
2019-06-01T07:33:38.943Z,27.80
2019-06-01T07:35:43.912Z,27.90
2019-06-01T07:37:48.809Z,28.00
2019-06-01T07:39:53.578Z,28.20
2019-06-01T07:41:58.534Z,28.20
2019-06-01T07:44:03.844Z,28.30
2019-06-01T07:46:09.038Z,28.40
2019-06-01T07:48:13.965Z,28.50
2019-06-01T07:50:19.825Z,28.60
2019-06-01T07:52:24.706Z,28.70
2019-06-01T07:54:29.969Z,28.70
2019-06-01T07:56:35.143Z,28.70
2019-06-01T07:58:39.952Z,28.60
2019-06-01T08:00:44.784Z,28.50
2019-06-01T08:02:50.402Z,28.60
2019-06-01T08:04:55.220Z,28.60
2019-06-01T08:07:00.062Z,28.60
2019-06-01T08:09:06.999Z,28.70
2019-06-01T08:11:11.709Z,28.80
2019-06-01T08:13:16.620Z,28.80
2019-06-01T08:15:21.741Z,28.90
2019-06-01T08:17:28.043Z,28.80
2019-06-01T08:19:32.869Z,28.90
2019-06-01T08:21:38.571Z,28.90
2019-06-01T08:23:43.833Z,28.90
2019-06-01T08:26:00.784Z,28.70
2019-06-01T08:28:20.326Z,28.80
2019-06-01T08:30:26.438Z,28.90
2019-06-01T08:32:31.285Z,28.80
2019-06-01T08:34:36.462Z,28.80
2019-06-01T08:36:41.681Z,28.90
2019-06-01T08:38:46.626Z,28.70
2019-06-01T08:40:52.255Z,28.90
2019-06-01T08:42:57.932Z,28.60
2019-06-01T08:45:04.720Z,28.50
2019-06-01T08:47:09.540Z,28.60
2019-06-01T08:49:14.570Z,28.70
2019-06-01T08:51:19.828Z,28.80
2019-06-01T08:53:27.678Z,28.90
2019-06-01T08:55:34.496Z,28.90
2019-06-01T08:57:39.969Z,28.90
2019-06-01T08:59:45.003Z,29.00
2019-06-01T09:01:49.877Z,28.90
2019-06-01T09:03:54.832Z,28.70
2019-06-01T09:06:00.255Z,28.30
2019-06-01T09:08:05.492Z,28.20
2019-06-01T09:10:11.617Z,28.40
2019-06-01T09:12:17.961Z,28.70
2019-06-01T09:14:23.367Z,28.60
2019-06-01T09:16:29.646Z,28.30
2019-06-01T09:18:35.809Z,28.20
2019-06-01T09:20:41.302Z,28.30
2019-06-01T09:22:48.281Z,28.30
2019-06-01T09:24:53.758Z,28.30
2019-06-01T09:27:00.328Z,28.30
2019-06-01T09:29:05.731Z,28.20
2019-06-01T09:31:10.605Z,28.20
2019-06-01T09:33:16.051Z,28.30
2019-06-01T09:35:21.514Z,28.40
2019-06-01T09:37:26.572Z,28.50
2019-06-01T09:39:33.069Z,28.50
2019-06-01T09:41:38.153Z,28.40
2019-06-01T09:43:42.986Z,28.20
2019-06-01T09:45:52.813Z,28.20
2019-06-01T09:47:55.142Z,28.30
2019-06-01T09:50:00.081Z,28.60
2019-06-01T09:52:05.223Z,28.70
2019-06-01T09:54:10.230Z,28.70
2019-06-01T09:56:15.262Z,28.50
2019-06-01T09:58:20.073Z,28.70
2019-06-01T10:00:25.135Z,28.70
2019-06-01T10:02:31.981Z,28.80
2019-06-01T10:04:37.189Z,28.70
2019-06-01T10:06:42.073Z,28.70
2019-06-01T10:08:47.107Z,28.80
2019-06-01T10:10:52.469Z,28.80
2019-06-01T10:12:57.784Z,28.90
2019-06-01T10:15:02.823Z,28.90
2019-06-01T10:17:08.846Z,29.00
2019-06-01T10:19:14.109Z,29.20
2019-06-01T10:21:18.993Z,29.20
2019-06-01T10:23:24.169Z,29.30
2019-06-01T10:25:30.290Z,29.40
2019-06-01T10:27:36.760Z,29.40
2019-06-01T10:30:17.406Z,29.40
2019-06-01T10:32:22.264Z,29.00
2019-06-01T10:34:27.278Z,28.80
2019-06-01T10:36:32.210Z,28.70
2019-06-01T10:38:37.470Z,28.50
2019-06-01T10:40:42.509Z,28.40
2019-06-01T10:42:47.799Z,28.50
2019-06-01T10:44:52.788Z,28.50
2019-06-01T10:46:57.729Z,28.60
2019-06-01T10:49:02.557Z,28.70
2019-06-01T10:51:07.419Z,28.70
2019-06-01T10:53:12.424Z,28.90
2019-06-01T10:55:17.461Z,28.90
2019-06-01T10:57:22.327Z,28.80
2019-06-01T10:59:27.422Z,28.80
2019-06-01T11:01:34.272Z,28.80
2019-06-01T11:03:40.751Z,28.80
2019-06-01T11:05:45.858Z,28.90
2019-06-01T11:07:50.705Z,28.80
2019-06-01T11:09:55.556Z,28.90
2019-06-01T11:12:00.534Z,28.90
2019-06-01T11:14:05.629Z,28.90
2019-06-01T11:16:10.520Z,29.00
2019-06-01T11:18:15.933Z,29.00
2019-06-01T11:20:21.426Z,28.70
2019-06-01T11:22:29.491Z,28.40
2019-06-01T11:24:35.337Z,28.40
2019-06-01T11:26:41.940Z,28.40
2019-06-01T11:28:47.097Z,28.50
2019-06-01T11:30:51.973Z,28.80
2019-06-01T11:32:58.059Z,28.70
2019-06-01T11:35:02.979Z,28.80
2019-06-01T11:37:08.016Z,28.80
2019-06-01T11:39:12.918Z,28.70
2019-06-01T11:41:18.819Z,28.70
2019-06-01T11:43:24.105Z,28.70
2019-06-01T11:45:29.258Z,28.70
2019-06-01T11:47:34.757Z,28.70
2019-06-01T11:49:40.820Z,28.70
2019-06-01T11:51:45.790Z,28.70
2019-06-01T11:53:50.901Z,28.70
2019-06-01T11:55:57.013Z,28.70
2019-06-01T11:58:02.397Z,28.80
2019-06-01T12:00:09.558Z,28.70
2019-06-01T12:02:14.805Z,28.80
2019-06-01T12:04:19.877Z,28.80
2019-06-01T12:06:25.110Z,28.80
2019-06-01T12:08:33.877Z,28.70
2019-06-01T12:10:37.008Z,28.80
2019-06-01T12:12:42.315Z,28.80
2019-06-01T12:14:47.564Z,28.80
2019-06-01T12:16:52.585Z,28.80
2019-06-01T12:18:57.875Z,28.80
2019-06-01T12:21:03.471Z,28.80
2019-06-01T12:23:08.481Z,28.70
2019-06-01T12:25:13.542Z,28.70
2019-06-01T12:27:18.447Z,28.80
2019-06-01T12:29:23.813Z,28.80
2019-06-01T12:31:29.829Z,28.80
2019-06-01T12:33:34.826Z,28.80
2019-06-01T12:35:39.917Z,28.90
2019-06-01T12:38:00.793Z,28.90
2019-06-01T12:39:54.279Z,28.80
2019-06-01T12:41:58.982Z,28.80
2019-06-01T12:44:13.802Z,28.90
2019-06-01T12:46:18.777Z,28.90
2019-06-01T12:48:23.855Z,29.00
2019-06-01T12:50:29.560Z,29.00
2019-06-01T12:52:34.651Z,29.00
2019-06-01T12:54:49.434Z,29.00
2019-06-01T12:56:55.538Z,29.00
2019-06-01T12:59:03.669Z,29.10
2019-06-01T13:01:08.640Z,29.10
2019-06-01T13:03:13.578Z,29.10
2019-06-01T13:05:18.691Z,29.00
2019-06-01T13:07:23.567Z,29.10
2019-06-01T13:09:28.912Z,29.10
2019-06-01T13:11:34.360Z,29.10
2019-06-01T13:13:39.342Z,29.10
2019-06-01T13:15:45.176Z,29.10
2019-06-01T13:17:51.369Z,29.10
2019-06-01T13:19:57.479Z,29.10
2019-06-01T13:22:02.411Z,29.20
2019-06-01T13:24:07.478Z,29.20
2019-06-01T13:26:12.382Z,29.20
2019-06-01T13:28:17.368Z,29.20
2019-06-01T13:30:22.729Z,29.30
2019-06-01T13:32:27.561Z,29.40
2019-06-01T13:34:34.346Z,29.40
2019-06-01T13:36:39.599Z,29.40
2019-06-01T13:38:44.577Z,29.40
2019-06-01T13:40:49.532Z,29.30
2019-06-01T13:42:54.853Z,29.40
2019-06-01T13:45:00.355Z,29.50
2019-06-01T13:47:05.447Z,29.40
2019-06-01T13:49:10.422Z,29.40
2019-06-01T13:51:16.472Z,29.40
2019-06-01T13:53:21.459Z,29.40
2019-06-01T13:55:26.274Z,29.40
2019-06-01T13:57:31.080Z,29.40
2019-06-01T13:59:35.963Z,29.40
2019-06-01T14:01:40.844Z,29.40
2019-06-01T14:03:47.204Z,29.40
2019-06-01T14:05:53.025Z,29.30
2019-06-01T14:07:58.164Z,29.30
2019-06-01T14:10:04.793Z,29.30
2019-06-01T14:12:09.561Z,29.10
2019-06-01T14:14:15.282Z,29.00
2019-06-01T14:16:20.145Z,28.90
2019-06-01T14:18:24.984Z,29.10
2019-06-01T14:20:30.059Z,29.20
2019-06-01T14:22:35.075Z,29.20
2019-06-01T14:24:43.435Z,29.10
2019-06-01T14:26:48.078Z,29.10
2019-06-01T14:28:54.174Z,29.20
2019-06-01T14:30:59.115Z,29.20
2019-06-01T14:33:04.491Z,29.20
2019-06-01T14:35:09.466Z,29.20
2019-06-01T14:37:14.843Z,29.20
2019-06-01T14:39:19.762Z,29.20
2019-06-01T14:41:24.665Z,29.20
2019-06-01T14:43:29.976Z,29.10
2019-06-01T14:45:34.923Z,29.20
2019-06-01T14:47:39.928Z,29.10
2019-06-01T14:49:45.408Z,29.10
2019-06-01T14:51:51.453Z,29.20
2019-06-01T14:53:57.879Z,29.30
2019-06-01T14:56:03.203Z,29.30
2019-06-01T14:58:08.770Z,29.30
2019-06-01T15:00:16.371Z,29.30
2019-06-01T15:02:21.849Z,29.30
2019-06-01T15:04:26.961Z,29.20
2019-06-01T15:06:31.908Z,29.10
2019-06-01T15:08:36.913Z,29.10
2019-06-01T15:10:41.907Z,29.00
2019-06-01T15:12:51.479Z,29.00
2019-06-01T15:14:55.459Z,29.10
2019-06-01T15:17:02.300Z,29.10
2019-06-01T15:19:07.906Z,29.20
2019-06-01T15:21:12.823Z,29.20
2019-06-01T15:23:17.742Z,29.20
2019-06-01T15:25:23.230Z,29.20
2019-06-01T15:27:28.082Z,29.10
2019-06-01T15:29:33.354Z,29.00
2019-06-01T15:31:38.263Z,29.00
2019-06-01T15:33:43.278Z,29.00
2019-06-01T15:35:48.408Z,29.00
2019-06-01T15:37:58.025Z,29.00
2019-06-01T15:40:00.901Z,29.10
2019-06-01T15:42:05.823Z,29.00
2019-06-01T15:44:10.764Z,28.90
2019-06-01T15:46:15.741Z,28.80
2019-06-01T15:48:21.870Z,28.80
2019-06-01T15:50:26.842Z,28.80
2019-06-01T15:52:32.209Z,28.80
2019-06-01T15:54:37.035Z,28.90
2019-06-01T15:56:42.127Z,29.00
2019-06-01T15:58:55.417Z,29.00
2019-06-01T16:01:00.983Z,29.00
2019-06-01T16:03:09.272Z,29.00
2019-06-01T16:05:15.612Z,29.00
2019-06-01T16:07:20.625Z,29.00
2019-06-01T16:09:41.510Z,29.00
2019-06-01T16:11:34.646Z,29.00
2019-06-01T16:13:39.537Z,29.00
2019-06-01T16:15:44.426Z,29.00
2019-06-01T16:17:49.539Z,29.00
2019-06-01T16:19:55.859Z,29.10
2019-06-01T16:22:00.784Z,29.10
2019-06-01T16:24:06.135Z,29.10
2019-06-01T16:26:16.329Z,29.10
2019-06-01T16:28:20.797Z,29.10
2019-06-01T16:30:25.699Z,29.10
2019-06-01T16:32:30.807Z,29.10
2019-06-01T16:34:35.740Z,28.90
2019-06-01T16:36:40.587Z,28.90
2019-06-01T16:38:45.487Z,28.90
2019-06-01T16:40:51.154Z,28.90
2019-06-01T16:42:57.229Z,28.90
2019-06-01T16:45:03.573Z,28.90
2019-06-01T16:47:08.775Z,29.00
2019-06-01T16:49:14.209Z,29.00
2019-06-01T16:51:19.330Z,28.90
2019-06-01T16:53:24.310Z,28.80
2019-06-01T16:55:31.570Z,28.80
2019-06-01T16:57:36.297Z,28.90
2019-06-01T16:59:41.220Z,28.90
2019-06-01T17:01:46.466Z,28.90
2019-06-01T17:03:51.369Z,28.90
2019-06-01T17:05:56.631Z,28.90
2019-06-01T17:08:02.709Z,29.00
2019-06-01T17:10:21.553Z,29.00
2019-06-01T17:12:14.828Z,28.90
2019-06-01T17:14:20.154Z,29.00
2019-06-01T17:16:25.120Z,29.10
2019-06-01T17:18:30.361Z,29.00
2019-06-01T17:20:51.652Z,29.00
2019-06-01T17:22:57.483Z,29.00
2019-06-01T17:25:02.341Z,29.00
2019-06-01T17:27:08.208Z,29.00
2019-06-01T17:29:13.426Z,28.90
2019-06-01T17:31:18.629Z,28.70
2019-06-01T17:33:23.999Z,28.80
2019-06-01T17:35:28.825Z,28.80
2019-06-01T17:37:34.092Z,28.60
2019-06-01T17:39:38.921Z,28.50
2019-06-01T17:41:44.301Z,28.50
2019-06-01T17:43:49.547Z,28.40
2019-06-01T17:45:54.342Z,28.40
2019-06-01T17:48:17.317Z,28.40
2019-06-01T17:50:07.575Z,28.30
2019-06-01T17:52:12.975Z,28.40
2019-06-01T17:54:17.977Z,28.40
2019-06-01T17:56:22.943Z,28.40
2019-06-01T17:58:27.995Z,28.40
2019-06-01T18:00:33.177Z,28.20
2019-06-01T18:02:38.533Z,28.20
2019-06-01T18:04:43.739Z,28.10
2019-06-01T18:06:48.598Z,28.00
2019-06-01T18:08:53.537Z,28.00
2019-06-01T18:10:59.587Z,27.80
2019-06-01T18:13:06.321Z,27.80
2019-06-01T18:15:12.760Z,27.80
2019-06-01T18:17:17.667Z,27.60
2019-06-01T18:19:23.576Z,27.60
2019-06-01T18:21:28.893Z,27.50
2019-06-01T18:23:34.026Z,27.30
2019-06-01T18:25:39.040Z,27.10
2019-06-01T18:27:44.558Z,27.20
2019-06-01T18:29:49.789Z,27.10
2019-06-01T18:31:56.786Z,27.00
2019-06-01T18:34:03.005Z,26.90
2019-06-01T18:36:08.155Z,27.20
2019-06-01T18:38:14.720Z,27.30
2019-06-01T18:40:22.320Z,27.40
2019-06-01T18:42:29.936Z,27.60
2019-06-01T18:44:35.346Z,27.70
2019-06-01T18:46:40.839Z,27.60
2019-06-01T18:48:46.767Z,27.40
2019-06-01T18:50:52.923Z,27.20
2019-06-01T18:52:58.127Z,27.20
2019-06-01T18:55:04.274Z,27.20
2019-06-01T18:57:17.541Z,27.00
2019-06-01T18:59:16.917Z,26.80
2019-06-01T19:01:21.825Z,26.70
2019-06-01T19:03:27.328Z,26.90
2019-06-01T19:05:32.988Z,26.70
2019-06-01T19:07:38.244Z,26.60
2019-06-01T19:09:42.998Z,26.40
2019-06-01T19:11:48.592Z,26.40
2019-06-01T19:13:53.460Z,26.50
2019-06-01T19:15:58.921Z,26.50
2019-06-01T19:18:08.197Z,26.50
2019-06-01T19:20:17.055Z,26.40
2019-06-01T19:22:25.659Z,26.40
2019-06-01T19:24:30.725Z,26.30
2019-06-01T19:26:36.080Z,26.20
2019-06-01T19:28:41.292Z,26.10
2019-06-01T19:30:46.962Z,26.00
2019-06-01T19:32:51.805Z,25.90
2019-06-01T19:34:57.995Z,25.50
2019-06-01T19:37:05.269Z,25.10
2019-06-01T19:39:11.112Z,24.70
2019-06-01T19:41:17.494Z,24.50
2019-06-01T19:43:23.022Z,24.60
2019-06-01T19:45:29.657Z,24.60
2019-06-01T19:47:34.782Z,25.00
2019-06-01T19:49:43.724Z,25.30
2019-06-01T19:51:48.459Z,25.40
2019-06-01T19:53:54.903Z,25.20
2019-06-01T19:56:00.233Z,24.90
2019-06-01T19:58:06.057Z,24.50
2019-06-01T20:00:12.075Z,24.60
2019-06-01T20:02:29.500Z,24.90
2019-06-01T20:04:25.121Z,24.70
2019-06-01T20:06:32.275Z,24.40
2019-06-01T20:08:37.402Z,24.40
2019-06-01T20:10:43.680Z,24.70
2019-06-01T20:12:48.884Z,24.40
2019-06-01T20:14:53.747Z,24.40
2019-06-01T20:16:58.808Z,24.40
2019-06-01T20:19:03.789Z,24.30
2019-06-01T20:21:08.921Z,24.20
2019-06-01T20:23:15.274Z,23.80
2019-06-01T20:25:21.419Z,23.60
2019-06-01T20:27:27.009Z,23.40
2019-06-01T20:29:32.091Z,23.70
2019-06-01T20:31:37.636Z,24.10
2019-06-01T20:33:43.144Z,24.30
2019-06-01T20:35:48.337Z,24.30
2019-06-01T20:37:53.480Z,23.90
2019-06-01T20:40:00.029Z,24.10
2019-06-01T20:42:20.749Z,24.20
2019-06-01T20:44:14.727Z,24.00
2019-06-01T20:46:20.925Z,23.60
2019-06-01T20:48:27.335Z,23.70
2019-06-01T20:50:32.448Z,23.70
2019-06-01T20:52:39.597Z,23.50
2019-06-01T20:54:49.313Z,23.70
2019-06-01T20:56:56.133Z,23.80
2019-06-01T20:59:01.640Z,23.90
2019-06-01T21:01:07.426Z,23.60
2019-06-01T21:03:13.689Z,23.50
2019-06-01T21:05:19.909Z,23.20
2019-06-01T21:07:24.997Z,23.20
2019-06-01T21:09:30.164Z,23.20
2019-06-01T21:11:35.682Z,22.90
2019-06-01T21:13:40.650Z,22.80
2019-06-01T21:15:45.457Z,22.80
2019-06-01T21:17:50.583Z,22.90
2019-06-01T21:19:55.892Z,23.00
2019-06-01T21:22:01.205Z,23.00
2019-06-01T21:24:06.412Z,23.00
2019-06-01T21:26:11.700Z,22.90
2019-06-01T21:28:18.525Z,22.70
2019-06-01T21:30:24.597Z,22.70
2019-06-01T21:32:30.168Z,22.90
2019-06-01T21:34:36.014Z,22.90
2019-06-01T21:36:41.770Z,22.70
2019-06-01T21:38:47.025Z,22.60
2019-06-01T21:40:51.865Z,22.40
2019-06-01T21:43:03.089Z,22.30
2019-06-01T21:45:06.057Z,22.40
2019-06-01T21:47:11.882Z,22.20
2019-06-01T21:53:49.875Z,21.90
2019-06-01T21:59:50.840Z,21.70
2019-06-01T22:02:25.123Z,21.60
2019-06-01T22:05:10.326Z,21.70
2019-06-01T22:08:02.247Z,21.60
2019-06-01T22:11:13.910Z,21.60
2019-06-01T22:13:55.029Z,21.40
2019-06-01T22:19:52.514Z,21.20
2019-06-01T22:25:07.358Z,21.10
2019-06-01T22:27:12.374Z,21.00
2019-06-01T22:29:20.104Z,21.10
2019-06-01T22:31:26.627Z,21.00
2019-06-01T22:33:32.253Z,21.00
2019-06-01T22:35:37.376Z,21.10
2019-06-01T22:37:42.581Z,21.10
2019-06-01T22:39:49.230Z,21.00
2019-06-01T22:42:01.753Z,21.10
2019-06-01T22:44:06.751Z,21.00
2019-06-01T22:46:20.376Z,20.90
2019-06-01T22:48:26.641Z,20.90
2019-06-01T22:50:33.028Z,20.80
2019-06-01T22:52:40.824Z,20.70
2019-06-01T22:54:45.638Z,20.60
2019-06-01T22:56:50.550Z,20.60
2019-06-01T22:58:55.513Z,20.60
2019-06-01T23:01:05.766Z,20.50
2019-06-01T23:03:11.104Z,20.40
2019-06-01T23:05:16.243Z,20.50
2019-06-01T23:07:25.112Z,20.50
2019-06-01T23:09:31.571Z,20.50
2019-06-01T23:11:36.554Z,20.50
2019-06-01T23:13:52.888Z,20.30
2019-06-01T23:15:49.124Z,20.20
2019-06-01T23:17:54.267Z,20.20
2019-06-01T23:19:59.648Z,20.10
2019-06-01T23:22:05.201Z,20.10
2019-06-01T23:24:10.388Z,20.20
2019-06-01T23:26:15.890Z,20.20
2019-06-01T23:28:21.983Z,20.10
2019-06-01T23:30:28.130Z,20.00
2019-06-01T23:32:33.256Z,19.90
2019-06-01T23:34:38.256Z,19.90
2019-06-01T23:36:43.239Z,19.90
2019-06-01T23:38:53.020Z,19.90
2019-06-01T23:40:58.666Z,20.00
2019-06-01T23:43:05.130Z,20.10
2019-06-01T23:45:10.373Z,20.00
2019-06-01T23:47:15.602Z,19.90
2019-06-01T23:49:20.954Z,20.00
2019-06-01T23:51:27.309Z,19.90
2019-06-01T23:53:35.497Z,19.80
2019-06-01T23:55:40.538Z,19.70
2019-06-01T23:57:45.760Z,19.60
2019-06-01T23:59:50.971Z,19.70
